createdAt,value
2022-10-17T00:03:06.325Z,63.09
2022-10-17T00:08:10.464Z,62.96
2022-10-17T00:13:13.568Z,62.46
2022-10-17T00:18:16.367Z,61.98
2022-10-17T00:23:19.747Z,61.42
2022-10-17T00:28:22.509Z,61.12
2022-10-17T00:33:26.411Z,61.41
2022-10-17T00:38:29.314Z,61.84
2022-10-17T00:43:54.132Z,61.95
2022-10-17T00:48:59.393Z,62.20
2022-10-17T00:54:04.026Z,62.13
2022-10-17T00:59:09.508Z,61.86
2022-10-17T01:04:12.921Z,61.69
2022-10-17T01:09:15.720Z,62.18
2022-10-17T01:14:27.639Z,61.91
2022-10-17T01:20:01.381Z,61.70
2022-10-17T01:25:23.932Z,61.76
2022-10-17T01:30:51.818Z,61.65
2022-10-17T01:36:43.676Z,60.89
2022-10-17T01:42:06.853Z,57.60
2022-10-17T01:47:13.609Z,59.49
2022-10-17T01:52:24.130Z,67.45
2022-10-17T01:57:36.134Z,66.09
2022-10-17T02:02:40.999Z,63.14
2022-10-17T02:07:43.799Z,61.66
2022-10-17T02:13:02.737Z,61.30
2022-10-17T02:18:30.054Z,61.17
2022-10-17T02:23:51.186Z,60.20
2022-10-17T02:29:19.586Z,59.25
2022-10-17T02:34:28.021Z,59.29
2022-10-17T02:39:33.075Z,65.80
2022-10-17T02:44:42.417Z,62.75
2022-10-17T02:49:50.346Z,60.50
2022-10-17T02:55:18.447Z,57.80
2022-10-17T03:00:23.913Z,61.35
2022-10-17T03:05:29.602Z,67.44
2022-10-17T03:10:32.383Z,63.64
2022-10-17T03:15:35.582Z,61.54
2022-10-17T03:20:38.397Z,60.80
2022-10-17T03:25:41.410Z,59.41
2022-10-17T03:30:44.319Z,57.84
2022-10-17T03:35:47.245Z,60.89
2022-10-17T03:40:56.408Z,68.19
2022-10-17T03:46:00.027Z,64.01
2022-10-17T03:51:06.276Z,60.79
2022-10-17T03:56:20.859Z,58.69
2022-10-17T04:01:24.432Z,59.70
2022-10-17T04:06:27.270Z,67.02
2022-10-17T04:11:30.181Z,63.59
2022-10-17T04:16:33.082Z,59.58
2022-10-17T04:21:35.878Z,57.53
2022-10-17T04:26:38.680Z,60.00
2022-10-17T04:31:41.481Z,67.24
2022-10-17T04:36:44.948Z,66.35
2022-10-17T04:41:48.005Z,63.62
2022-10-17T04:46:50.811Z,61.70
2022-10-17T04:51:53.610Z,60.27
2022-10-17T04:56:56.413Z,57.22
2022-10-17T05:01:59.216Z,59.47
2022-10-17T05:07:02.118Z,66.86
2022-10-17T05:12:08.008Z,64.63
2022-10-17T05:17:13.254Z,61.87
2022-10-17T05:22:16.053Z,60.64
2022-10-17T05:27:19.160Z,59.68
2022-10-17T05:32:22.172Z,57.98
2022-10-17T05:37:24.971Z,60.68
2022-10-17T05:42:28.209Z,66.76
2022-10-17T05:47:32.091Z,63.84
2022-10-17T05:52:35.441Z,58.81
2022-10-17T05:57:38.737Z,56.86
2022-10-17T06:02:42.047Z,58.23
2022-10-17T06:07:44.855Z,61.97
2022-10-17T06:12:47.656Z,68.09
2022-10-17T06:17:51.275Z,62.69
2022-10-17T06:22:54.485Z,59.22
2022-10-17T06:27:57.403Z,63.45
2022-10-17T06:33:00.409Z,60.01
2022-10-17T06:38:04.231Z,59.49
2022-10-17T06:43:07.546Z,59.19
2022-10-17T06:48:10.547Z,58.02
2022-10-17T06:53:13.758Z,62.69
2022-10-17T06:58:16.903Z,58.53
2022-10-17T07:03:19.770Z,58.80
2022-10-17T07:08:23.289Z,58.99
2022-10-17T07:13:26.198Z,59.28
2022-10-17T07:18:28.994Z,59.19
2022-10-17T07:23:32.205Z,60.24
2022-10-17T07:28:41.127Z,61.53
2022-10-17T07:38:53.001Z,60.50
2022-10-17T07:43:56.234Z,56.27
2022-10-17T07:48:59.428Z,59.40
2022-10-17T07:54:02.328Z,61.66
2022-10-17T07:59:08.384Z,62.20
2022-10-17T08:04:12.441Z,58.90
2022-10-17T08:09:15.909Z,60.98
2022-10-17T08:14:18.757Z,60.75
2022-10-17T08:19:21.665Z,60.61
2022-10-17T08:24:24.659Z,60.73
2022-10-17T08:29:28.173Z,61.25
2022-10-17T08:34:31.005Z,61.85
2022-10-17T08:39:33.897Z,58.93
2022-10-17T08:44:44.078Z,58.00
2022-10-17T08:49:58.174Z,58.53
2022-10-17T08:55:01.387Z,59.14
2022-10-17T09:00:14.697Z,59.79
2022-10-17T09:05:30.614Z,59.01
2022-10-17T09:10:54.193Z,54.19
2022-10-17T09:16:33.657Z,43.62
2022-10-17T09:21:46.289Z,41.49
2022-10-17T09:26:51.042Z,39.52
2022-10-17T09:32:05.166Z,36.57
2022-10-17T09:37:14.683Z,33.26
2022-10-17T09:42:23.205Z,31.31
2022-10-17T09:47:32.246Z,30.05
2022-10-17T09:52:40.346Z,31.15
2022-10-17T09:57:55.364Z,31.35
2022-10-17T10:03:21.305Z,32.49
2022-10-17T10:08:28.408Z,28.77
2022-10-17T10:13:34.789Z,28.49
2022-10-17T10:18:37.903Z,28.35
2022-10-17T10:23:43.177Z,26.78
2022-10-17T10:28:54.534Z,27.94
2022-10-17T10:34:00.098Z,28.35
2022-10-17T10:39:33.658Z,28.55
2022-10-17T10:44:39.712Z,28.66
2022-10-17T10:49:44.279Z,27.63
2022-10-17T10:55:05.306Z,26.81
2022-10-17T11:00:23.363Z,27.21
2022-10-17T11:06:12.148Z,26.90
2022-10-17T11:11:34.098Z,27.22
2022-10-17T11:16:55.646Z,27.31
2022-10-17T11:22:23.986Z,27.05
2022-10-17T11:27:30.812Z,28.37
2022-10-17T11:32:43.039Z,27.42
2022-10-17T11:37:54.975Z,28.43
2022-10-17T11:43:02.489Z,28.57
2022-10-17T11:48:13.180Z,28.19
2022-10-17T11:53:30.161Z,28.15
2022-10-17T11:59:11.008Z,28.48
2022-10-17T12:04:27.426Z,29.00
2022-10-17T12:09:41.098Z,29.39
2022-10-17T12:14:46.904Z,29.57
2022-10-17T12:19:49.998Z,29.45
2022-10-17T12:25:04.238Z,29.63
2022-10-17T12:30:13.693Z,29.50
2022-10-17T12:35:21.746Z,32.00
2022-10-17T12:40:37.217Z,34.00
2022-10-17T12:45:51.611Z,33.83
2022-10-17T12:51:34.853Z,33.80
2022-10-17T12:56:39.931Z,33.79
2022-10-17T13:01:48.076Z,35.46
2022-10-17T13:06:57.174Z,37.23
2022-10-17T13:12:04.794Z,36.11
2022-10-17T13:17:20.804Z,35.69
2022-10-17T13:22:27.506Z,36.37
2022-10-17T13:27:34.184Z,36.68
2022-10-17T13:32:38.010Z,37.26
2022-10-17T13:37:50.274Z,38.63
2022-10-17T13:42:58.053Z,40.52
2022-10-17T13:48:08.345Z,41.67
2022-10-17T13:53:19.221Z,43.05
2022-10-17T13:58:22.378Z,44.04
2022-10-17T14:03:32.558Z,44.71
2022-10-17T14:09:01.740Z,44.20
2022-10-17T14:14:15.475Z,42.77
2022-10-17T14:19:24.989Z,42.66
2022-10-17T14:24:31.636Z,44.12
2022-10-17T14:29:52.855Z,45.11
2022-10-17T14:35:10.594Z,45.26
2022-10-17T14:40:26.381Z,47.56
2022-10-17T14:45:38.756Z,48.68
2022-10-17T14:56:00.659Z,50.79
2022-10-17T15:01:03.546Z,52.20
2022-10-17T15:06:18.543Z,53.40
2022-10-17T15:11:21.339Z,54.45
2022-10-17T15:16:26.184Z,57.30
2022-10-17T15:21:47.288Z,58.27
2022-10-17T15:26:50.547Z,60.86
2022-10-17T15:31:53.535Z,61.18
2022-10-17T15:36:56.572Z,56.91
2022-10-17T15:42:00.174Z,60.00
2022-10-17T15:47:02.965Z,63.92
2022-10-17T15:52:05.972Z,59.07
2022-10-17T15:57:18.194Z,61.76
2022-10-17T16:02:22.940Z,61.12
2022-10-17T16:07:25.852Z,58.61
2022-10-17T16:12:30.205Z,62.71
2022-10-17T16:17:33.056Z,62.33
2022-10-17T16:22:37.021Z,58.38
2022-10-17T16:27:39.923Z,60.26
2022-10-17T16:32:43.680Z,62.49
2022-10-17T16:37:47.681Z,59.95
2022-10-17T16:42:50.461Z,59.81
2022-10-17T16:47:53.736Z,64.25
2022-10-17T16:52:56.492Z,61.60
2022-10-17T16:58:00.139Z,57.91
2022-10-17T17:03:03.606Z,60.34
2022-10-17T17:08:10.350Z,64.48
2022-10-17T17:13:16.198Z,61.98
2022-10-17T17:18:19.515Z,58.89
2022-10-17T17:23:22.313Z,64.26
2022-10-17T17:28:26.399Z,61.73
2022-10-17T17:33:30.373Z,58.79
2022-10-17T17:38:35.228Z,62.84
2022-10-17T17:43:38.130Z,59.86
2022-10-17T17:48:41.940Z,61.59
2022-10-17T17:53:45.166Z,62.41
2022-10-17T17:58:54.523Z,59.05
2022-10-17T18:03:59.680Z,61.75
2022-10-17T18:09:02.726Z,61.96
2022-10-17T18:14:08.601Z,59.16
2022-10-17T18:19:12.004Z,61.49
2022-10-17T18:24:14.775Z,61.87
2022-10-17T18:29:17.885Z,59.01
2022-10-17T18:34:20.896Z,61.82
2022-10-17T18:39:24.413Z,61.58
2022-10-17T18:44:27.325Z,59.53
2022-10-17T18:49:30.228Z,62.49
2022-10-17T18:54:34.870Z,60.40
2022-10-17T18:59:37.777Z,59.60
2022-10-17T19:04:41.152Z,63.20
2022-10-17T19:09:43.989Z,60.45
2022-10-17T19:14:49.041Z,60.24
2022-10-17T19:19:53.379Z,62.47
2022-10-17T19:24:56.182Z,59.93
2022-10-17T19:29:59.289Z,61.24
2022-10-17T19:35:02.091Z,62.77
2022-10-17T19:40:06.150Z,59.64
2022-10-17T19:45:09.988Z,60.98
2022-10-17T19:50:12.852Z,63.59
2022-10-17T19:55:15.656Z,59.89
2022-10-17T20:00:18.562Z,59.91
2022-10-17T20:05:23.751Z,63.07
2022-10-17T20:10:28.975Z,60.45
2022-10-17T20:15:32.084Z,59.76
2022-10-17T20:20:35.970Z,61.05
2022-10-17T20:25:38.712Z,62.82
2022-10-17T20:30:46.570Z,60.06
2022-10-17T20:35:49.543Z,59.85
2022-10-17T20:40:52.338Z,63.51
2022-10-17T20:46:03.509Z,61.27
2022-10-17T20:51:09.363Z,59.36
2022-10-17T20:56:21.978Z,61.73
2022-10-17T21:01:26.512Z,61.82
2022-10-17T21:06:29.608Z,59.56
2022-10-17T21:11:32.763Z,62.08
2022-10-17T21:16:37.554Z,63.78
2022-10-17T21:21:43.017Z,60.28
2022-10-17T21:26:47.769Z,59.29
2022-10-17T21:31:51.176Z,61.74
2022-10-17T21:36:53.950Z,63.59
2022-10-17T21:41:56.889Z,60.39
2022-10-17T21:46:59.689Z,59.38
2022-10-17T21:52:06.996Z,63.29
2022-10-17T21:57:09.818Z,60.57
2022-10-17T22:02:14.858Z,60.24
2022-10-17T22:07:17.658Z,63.62
2022-10-17T22:12:20.458Z,60.89
2022-10-17T22:17:23.462Z,59.20
2022-10-17T22:22:26.265Z,61.85
2022-10-17T22:27:29.371Z,63.46
2022-10-17T22:32:32.587Z,60.52
2022-10-17T22:37:35.594Z,60.22
2022-10-17T22:42:38.392Z,64.31
2022-10-17T22:47:41.808Z,61.95
2022-10-17T22:52:44.609Z,60.16
2022-10-17T22:57:47.663Z,58.43
2022-10-17T23:02:54.411Z,63.23
2022-10-17T23:07:57.520Z,62.87
2022-10-17T23:13:00.321Z,60.84
2022-10-17T23:18:04.118Z,59.35
2022-10-17T23:23:06.951Z,63.51
2022-10-17T23:28:10.780Z,62.47
2022-10-17T23:33:14.397Z,60.16
2022-10-17T23:38:17.198Z,59.49
2022-10-17T23:43:20.207Z,64.11
2022-10-17T23:48:23.416Z,62.10
2022-10-17T23:53:27.495Z,59.06
2022-10-17T23:58:31.168Z,61.26
